createdAt,value
2019-04-13T00:00:39.299Z,59.25
2019-04-13T00:03:11.568Z,58.78
2019-04-13T00:06:01.456Z,59.24
2019-04-13T00:08:35.216Z,58.53
2019-04-13T00:11:19.988Z,58.91
2019-04-13T00:13:52.759Z,58.77
2019-04-13T00:16:24.727Z,58.30
2019-04-13T00:18:56.415Z,59.15
2019-04-13T00:21:28.195Z,59.12
2019-04-13T00:23:59.894Z,58.76
2019-04-13T00:26:31.662Z,59.86
2019-04-13T00:29:03.454Z,60.93
2019-04-13T00:31:35.473Z,60.48
2019-04-13T00:34:07.256Z,60.51
2019-04-13T00:36:39.027Z,59.94
2019-04-13T00:39:12.116Z,59.42
2019-04-13T00:41:43.974Z,59.80
2019-04-13T00:44:15.652Z,59.54
2019-04-13T00:46:47.348Z,60.20
2019-04-13T00:49:19.091Z,60.64
2019-04-13T00:51:50.927Z,60.67
2019-04-13T00:54:22.643Z,61.05
2019-04-13T00:56:54.337Z,61.52
2019-04-13T00:59:26.050Z,62.10
2019-04-13T01:01:57.976Z,62.14
2019-04-13T01:04:29.683Z,62.62
2019-04-13T01:07:01.742Z,63.15
2019-04-13T01:09:33.454Z,63.08
2019-04-13T01:12:05.238Z,62.09
2019-04-13T01:14:36.930Z,61.71
2019-04-13T01:17:08.742Z,61.92
2019-04-13T01:19:41.379Z,61.53
2019-04-13T01:22:13.069Z,61.42
2019-04-13T01:24:44.781Z,60.77
2019-04-13T01:27:16.542Z,61.39
2019-04-13T01:29:48.256Z,61.48
2019-04-13T01:32:19.965Z,62.00
2019-04-13T01:34:51.653Z,61.93
2019-04-13T01:37:23.340Z,61.76
2019-04-13T01:39:55.429Z,61.02
2019-04-13T01:42:27.124Z,60.91
2019-04-13T01:44:58.828Z,62.37
2019-04-13T01:47:30.510Z,62.05
2019-04-13T01:50:02.198Z,61.86
2019-04-13T01:52:33.896Z,61.82
2019-04-13T01:55:05.822Z,61.16
2019-04-13T01:57:37.515Z,61.84
2019-04-13T02:00:11.816Z,62.16
2019-04-13T02:02:47.399Z,63.14
2019-04-13T02:05:36.962Z,62.95
2019-04-13T02:08:14.476Z,63.28
2019-04-13T02:10:47.722Z,61.50
2019-04-13T02:13:19.479Z,60.66
2019-04-13T02:15:51.184Z,61.85
2019-04-13T02:18:23.251Z,62.04
2019-04-13T02:20:54.940Z,62.69
2019-04-13T02:23:26.650Z,63.01
2019-04-13T02:25:58.362Z,62.93
2019-04-13T02:28:30.058Z,63.34
2019-04-13T02:31:02.135Z,63.04
2019-04-13T02:33:34.221Z,62.99
2019-04-13T02:36:06.085Z,63.14
2019-04-13T02:38:37.798Z,63.72
2019-04-13T02:41:09.580Z,64.10
2019-04-13T02:43:41.273Z,63.97
2019-04-13T02:46:13.137Z,63.52
2019-04-13T02:48:44.848Z,63.62
2019-04-13T02:51:16.929Z,63.51
2019-04-13T02:53:48.713Z,63.44
2019-04-13T02:56:20.511Z,63.79
2019-04-13T02:58:52.285Z,63.42
2019-04-13T03:01:24.073Z,64.36
2019-04-13T03:03:56.126Z,64.07
2019-04-13T03:06:27.942Z,63.78
2019-04-13T03:09:00.071Z,63.70
2019-04-13T03:11:31.847Z,64.23
2019-04-13T03:14:03.746Z,64.62
2019-04-13T03:16:57.538Z,64.92
2019-04-13T03:19:32.809Z,65.41
2019-04-13T03:22:04.594Z,66.44
2019-04-13T03:24:36.301Z,66.68
2019-04-13T03:27:08.181Z,66.25
2019-04-13T03:29:39.961Z,65.72
2019-04-13T03:32:11.751Z,65.47
2019-04-13T03:34:43.527Z,65.18
2019-04-13T03:37:15.677Z,65.37
2019-04-13T03:39:47.453Z,65.39
2019-04-13T03:42:19.156Z,64.75
2019-04-13T03:44:50.861Z,65.14
2019-04-13T03:47:23.061Z,65.49
2019-04-13T03:49:54.768Z,65.88
2019-04-13T03:52:26.529Z,65.72
2019-04-13T03:54:58.234Z,65.68
2019-04-13T03:57:29.938Z,66.04
2019-04-13T04:00:01.666Z,66.55
2019-04-13T04:02:34.732Z,65.91
2019-04-13T04:05:07.422Z,65.97
2019-04-13T04:07:39.147Z,66.11
2019-04-13T04:10:12.014Z,66.39
2019-04-13T04:12:43.744Z,65.77
2019-04-13T04:15:15.533Z,66.72
2019-04-13T04:17:47.340Z,67.57
2019-04-13T04:20:19.116Z,68.21
2019-04-13T04:22:50.897Z,67.07
2019-04-13T04:25:22.664Z,67.47
2019-04-13T04:27:54.399Z,67.38
2019-04-13T04:30:26.090Z,67.25
2019-04-13T04:32:57.806Z,66.09
2019-04-13T04:35:29.504Z,66.68
2019-04-13T04:38:01.233Z,66.79
2019-04-13T04:40:35.239Z,66.50
2019-04-13T04:43:06.627Z,66.89
2019-04-13T04:45:38.400Z,66.92
2019-04-13T04:48:10.198Z,67.04
2019-04-13T04:50:41.895Z,66.59
2019-04-13T04:53:13.623Z,66.77
2019-04-13T04:55:45.510Z,67.73
2019-04-13T04:58:18.267Z,67.85
2019-04-13T05:00:50.076Z,67.92
2019-04-13T05:03:21.791Z,67.38
2019-04-13T05:05:53.831Z,68.18
2019-04-13T05:08:25.540Z,67.43
2019-04-13T05:10:57.958Z,67.62
2019-04-13T05:13:30.223Z,67.96
2019-04-13T05:16:01.923Z,68.71
2019-04-13T05:18:33.637Z,68.84
2019-04-13T05:21:05.834Z,67.86
2019-04-13T05:23:37.610Z,68.03
2019-04-13T05:26:09.317Z,67.87
2019-04-13T05:28:41.337Z,67.80
2019-04-13T05:31:13.068Z,68.09
2019-04-13T05:33:45.006Z,68.06
2019-04-13T05:36:16.801Z,68.49
2019-04-13T05:38:48.721Z,67.73
2019-04-13T05:41:20.429Z,68.08
2019-04-13T05:43:53.244Z,67.14
2019-04-13T05:46:24.952Z,67.41
2019-04-13T05:48:56.694Z,66.91
2019-04-13T05:51:28.417Z,66.97
2019-04-13T05:54:00.160Z,67.48
2019-04-13T05:56:31.871Z,67.74
2019-04-13T05:59:03.740Z,67.94
2019-04-13T06:01:35.506Z,66.60
2019-04-13T06:04:07.306Z,67.26
2019-04-13T06:06:39.009Z,66.08
2019-04-13T06:09:12.794Z,66.54
2019-04-13T06:11:45.659Z,66.57
2019-04-13T06:14:17.743Z,66.63
2019-04-13T06:16:50.135Z,66.68
2019-04-13T06:19:21.854Z,65.92
2019-04-13T06:21:53.562Z,66.27
2019-04-13T06:24:25.278Z,65.71
2019-04-13T06:26:56.977Z,65.75
2019-04-13T06:29:28.760Z,65.38
2019-04-13T06:32:31.326Z,65.36
2019-04-13T06:35:28.230Z,65.00
2019-04-13T06:37:59.934Z,64.12
2019-04-13T06:40:32.840Z,63.92
2019-04-13T06:43:04.908Z,64.74
2019-04-13T06:45:36.707Z,64.41
2019-04-13T06:48:08.549Z,65.42
2019-04-13T06:50:40.346Z,64.63
2019-04-13T06:53:12.063Z,64.37
2019-04-13T06:55:43.898Z,65.79
2019-04-13T06:58:16.397Z,64.62
2019-04-13T07:00:48.703Z,64.61
2019-04-13T07:03:20.340Z,64.28
2019-04-13T07:05:52.065Z,64.20
2019-04-13T07:08:52.543Z,64.92
2019-04-13T07:11:35.698Z,64.00
2019-04-13T07:14:10.255Z,64.27
2019-04-13T07:17:03.513Z,64.20
2019-04-13T07:19:35.238Z,64.05
2019-04-13T07:22:07.699Z,64.21
2019-04-13T07:24:39.875Z,64.15
2019-04-13T07:27:12.587Z,63.70
2019-04-13T07:29:44.305Z,63.93
2019-04-13T07:32:16.290Z,63.69
2019-04-13T07:34:48.021Z,63.13
2019-04-13T07:37:19.812Z,63.15
2019-04-13T07:39:51.524Z,62.53
2019-04-13T07:42:23.508Z,64.25
2019-04-13T07:45:16.980Z,62.57
2019-04-13T07:47:57.545Z,61.46
2019-04-13T07:51:03.694Z,61.92
2019-04-13T07:53:35.769Z,62.80
2019-04-13T07:56:07.847Z,62.20
2019-04-13T07:58:39.549Z,62.32
2019-04-13T08:01:12.004Z,61.78
2019-04-13T08:03:44.758Z,62.01
2019-04-13T08:06:16.618Z,61.33
2019-04-13T08:08:48.327Z,59.57
2019-04-13T08:11:20.173Z,59.42
2019-04-13T08:13:52.367Z,59.37
2019-04-13T08:16:25.079Z,55.61
2019-04-13T08:19:12.344Z,57.28
2019-04-13T08:21:43.767Z,57.08
2019-04-13T08:24:17.191Z,57.79
2019-04-13T08:26:49.058Z,56.07
2019-04-13T08:29:20.813Z,56.20
2019-04-13T08:31:53.578Z,57.02
2019-04-13T08:34:25.394Z,54.47
2019-04-13T08:36:58.154Z,55.23
2019-04-13T08:39:30.019Z,57.80
2019-04-13T08:42:01.744Z,55.87
2019-04-13T08:44:36.430Z,55.34
2019-04-13T08:47:07.198Z,54.81
2019-04-13T08:49:38.955Z,55.34
2019-04-13T08:52:11.392Z,54.50
2019-04-13T08:54:43.222Z,55.60
2019-04-13T08:57:15.204Z,54.79
2019-04-13T08:59:46.942Z,55.65
2019-04-13T09:02:18.813Z,56.99
2019-04-13T09:04:51.041Z,58.74
2019-04-13T09:07:22.824Z,52.60
2019-04-13T09:09:54.886Z,55.67
2019-04-13T09:12:26.815Z,55.17
2019-04-13T09:15:01.211Z,55.81
2019-04-13T09:17:37.811Z,54.91
2019-04-13T09:20:24.725Z,54.00
2019-04-13T09:23:06.617Z,52.30
2019-04-13T09:25:38.495Z,52.68
2019-04-13T09:28:12.644Z,52.32
2019-04-13T09:30:44.560Z,52.72
2019-04-13T09:33:17.357Z,51.70
2019-04-13T09:35:49.079Z,50.48
2019-04-13T09:38:20.786Z,52.06
2019-04-13T09:40:53.448Z,52.22
2019-04-13T09:43:31.130Z,51.67
2019-04-13T09:46:06.149Z,50.80
2019-04-13T09:48:36.291Z,50.12
2019-04-13T09:51:08.401Z,49.82
2019-04-13T09:53:41.473Z,50.48
2019-04-13T09:56:13.419Z,49.87
2019-04-13T09:58:45.383Z,50.26
2019-04-13T10:01:17.071Z,50.68
2019-04-13T10:03:49.522Z,51.04
2019-04-13T10:06:21.376Z,50.66
2019-04-13T10:08:56.115Z,50.60
2019-04-13T10:11:44.554Z,51.06
2019-04-13T10:14:41.285Z,50.19
2019-04-13T10:17:17.867Z,51.44
2019-04-13T10:19:49.611Z,51.37
2019-04-13T10:22:24.520Z,51.22
2019-04-13T10:24:55.161Z,49.26
2019-04-13T10:27:27.129Z,50.77
2019-04-13T10:30:02.713Z,49.92
2019-04-13T10:32:33.873Z,51.39
2019-04-13T10:35:06.019Z,50.43
2019-04-13T10:37:38.104Z,49.96
2019-04-13T10:40:11.963Z,49.66
2019-04-13T10:42:43.478Z,50.30
2019-04-13T10:45:33.834Z,48.27
2019-04-13T10:48:14.409Z,47.80
2019-04-13T10:50:52.857Z,50.36
2019-04-13T10:53:23.890Z,49.63
2019-04-13T10:55:55.618Z,50.35
2019-04-13T10:58:27.433Z,49.13
2019-04-13T11:00:59.150Z,48.73
2019-04-13T11:03:31.123Z,48.78
2019-04-13T11:06:08.478Z,50.10
2019-04-13T11:08:37.294Z,50.27
2019-04-13T11:11:09.061Z,49.98
2019-04-13T11:13:40.785Z,51.32
2019-04-13T11:16:12.573Z,50.15
2019-04-13T11:18:44.412Z,49.41
2019-04-13T11:21:17.107Z,48.27
2019-04-13T11:23:49.675Z,48.49
2019-04-13T11:26:21.542Z,48.49
2019-04-13T11:28:53.427Z,47.88
2019-04-13T11:31:25.293Z,48.62
2019-04-13T11:33:57.061Z,48.38
2019-04-13T11:36:29.119Z,48.45
2019-04-13T11:39:02.533Z,46.57
2019-04-13T11:41:44.112Z,45.54
2019-04-13T11:44:53.195Z,45.21
2019-04-13T11:47:52.939Z,45.09
2019-04-13T11:50:29.778Z,46.09
2019-04-13T11:53:02.805Z,46.28
2019-04-13T11:55:34.808Z,46.50
2019-04-13T11:58:06.834Z,47.14
2019-04-13T12:01:06.572Z,47.76
2019-04-13T12:03:56.923Z,48.74
2019-04-13T12:06:41.742Z,48.37
2019-04-13T12:09:20.527Z,48.89
2019-04-13T12:12:05.782Z,47.76
2019-04-13T12:14:56.803Z,48.55
2019-04-13T12:17:50.976Z,49.10
2019-04-13T12:20:31.657Z,49.98
2019-04-13T12:23:03.909Z,49.45
2019-04-13T12:25:35.737Z,49.69
2019-04-13T12:28:08.138Z,49.88
2019-04-13T12:30:42.837Z,50.01
2019-04-13T12:33:19.768Z,50.19
2019-04-13T12:35:48.878Z,50.24
2019-04-13T12:38:20.836Z,50.52
2019-04-13T12:41:00.120Z,51.58
2019-04-13T12:43:32.109Z,51.25
2019-04-13T12:46:03.902Z,50.32
2019-04-13T12:48:35.682Z,50.23
2019-04-13T12:51:07.496Z,50.09
2019-04-13T12:53:39.254Z,50.16
2019-04-13T12:56:11.674Z,50.16
2019-04-13T12:58:43.486Z,51.22
2019-04-13T13:01:20.535Z,52.05
2019-04-13T13:03:52.341Z,51.27
2019-04-13T13:06:24.074Z,53.01
2019-04-13T13:08:55.866Z,51.71
2019-04-13T13:11:27.933Z,53.00
2019-04-13T13:13:59.640Z,49.81
2019-04-13T13:16:31.368Z,48.61
2019-04-13T13:19:03.177Z,47.62
2019-04-13T13:21:35.919Z,48.04
2019-04-13T13:24:08.419Z,49.04
2019-04-13T13:26:47.985Z,50.31
2019-04-13T13:29:13.828Z,49.42
2019-04-13T13:31:45.800Z,49.46
2019-04-13T13:34:17.586Z,50.85
2019-04-13T13:36:53.802Z,49.18
2019-04-13T13:39:23.556Z,49.47
2019-04-13T13:41:55.799Z,49.14
2019-04-13T13:44:27.824Z,48.98
2019-04-13T13:46:59.633Z,50.09
2019-04-13T13:49:31.354Z,49.78
2019-04-13T13:52:05.862Z,50.97
2019-04-13T13:54:36.799Z,52.66
2019-04-13T13:57:09.679Z,51.27
2019-04-13T13:59:41.459Z,51.41
2019-04-13T14:02:22.865Z,53.34
2019-04-13T14:04:55.042Z,53.24
2019-04-13T14:07:26.765Z,52.87
2019-04-13T14:10:13.093Z,53.23
2019-04-13T14:12:45.245Z,53.33
2019-04-13T14:15:17.282Z,54.59
2019-04-13T14:17:51.299Z,52.37
2019-04-13T14:20:24.012Z,51.89
2019-04-13T14:22:56.395Z,51.86
2019-04-13T14:25:28.184Z,51.83
2019-04-13T14:28:00.324Z,53.78
2019-04-13T14:30:32.341Z,52.99
2019-04-13T14:33:04.519Z,51.72
2019-04-13T14:35:36.299Z,52.58
2019-04-13T14:38:08.018Z,52.87
2019-04-13T14:40:39.795Z,52.69
2019-04-13T14:43:13.974Z,52.69
2019-04-13T14:45:46.746Z,53.40
2019-04-13T14:48:19.036Z,53.49
2019-04-13T14:50:56.160Z,56.24
2019-04-13T14:53:27.907Z,55.49
2019-04-13T14:56:04.050Z,56.03
2019-04-13T14:58:34.962Z,56.11
2019-04-13T15:01:08.284Z,58.08
2019-04-13T15:03:40.500Z,59.57
2019-04-13T15:06:13.355Z,59.21
2019-04-13T15:08:46.958Z,58.16
2019-04-13T15:11:18.938Z,59.04
2019-04-13T15:13:51.996Z,59.77
2019-04-13T15:16:26.318Z,58.08
2019-04-13T15:19:23.981Z,58.46
2019-04-13T15:21:45.945Z,59.45
2019-04-13T15:24:21.003Z,61.10
2019-04-13T15:26:52.372Z,63.81
2019-04-13T15:29:28.962Z,66.52
2019-04-13T15:31:59.673Z,67.43
2019-04-13T15:34:34.883Z,67.36
2019-04-13T15:37:07.069Z,65.49
2019-04-13T15:39:42.769Z,63.56
2019-04-13T15:42:20.181Z,65.10
2019-04-13T15:44:50.162Z,65.33
2019-04-13T15:47:23.938Z,66.42
2019-04-13T15:49:54.498Z,64.18
2019-04-13T15:52:28.431Z,67.25
2019-04-13T15:55:00.379Z,67.94
2019-04-13T15:57:34.165Z,69.28
2019-04-13T16:00:07.040Z,65.67
2019-04-13T16:02:40.751Z,67.50
2019-04-13T16:05:13.786Z,69.07
2019-04-13T16:07:46.406Z,70.19
2019-04-13T16:10:37.109Z,69.49
2019-04-13T16:15:38.336Z,71.47
2019-04-13T16:20:05.943Z,72.40
2019-04-13T16:22:38.654Z,71.00
2019-04-13T16:25:12.177Z,71.65
2019-04-13T16:28:09.331Z,71.19
2019-04-13T16:31:15.864Z,69.92
2019-04-13T16:34:07.186Z,70.02
2019-04-13T16:36:46.207Z,71.09
2019-04-13T16:40:08.952Z,70.26
2019-04-13T16:42:41.083Z,70.07
2019-04-13T16:45:48.441Z,67.53
2019-04-13T16:48:37.888Z,71.41
2019-04-13T16:51:27.584Z,71.22
2019-04-13T16:54:06.268Z,72.62
2019-04-13T16:56:43.840Z,74.17
2019-04-13T16:59:23.018Z,73.56
2019-04-13T17:02:21.665Z,73.87
2019-04-13T17:07:18.126Z,71.49
2019-04-13T17:09:50.205Z,71.03
2019-04-13T17:12:30.724Z,71.96
2019-04-13T17:14:56.362Z,72.61
2019-04-13T17:17:29.304Z,73.91
2019-04-13T17:20:05.849Z,73.71
2019-04-13T17:22:52.044Z,74.78
2019-04-13T17:25:35.599Z,72.63
2019-04-13T17:28:35.738Z,70.64
2019-04-13T17:31:32.814Z,70.80
2019-04-13T17:34:13.379Z,75.36
2019-04-13T17:36:46.346Z,74.18
2019-04-13T17:39:18.932Z,73.83
2019-04-13T17:41:57.391Z,75.00
2019-04-13T17:44:31.452Z,76.55
2019-04-13T17:47:35.115Z,79.66
2019-04-13T17:50:24.439Z,77.47
2019-04-13T17:53:22.174Z,78.20
2019-04-13T17:56:05.098Z,79.93
2019-04-13T17:58:53.265Z,78.59
2019-04-13T18:01:43.894Z,79.55
2019-04-13T18:04:35.164Z,77.53
2019-04-13T18:07:20.091Z,79.44
2019-04-13T18:10:00.347Z,79.12
2019-04-13T18:12:54.704Z,79.75
2019-04-13T18:15:43.211Z,79.69
2019-04-13T18:18:29.434Z,79.52
2019-04-13T18:21:01.514Z,79.61
2019-04-13T18:23:33.930Z,78.78
2019-04-13T18:26:06.389Z,77.27
2019-04-13T18:28:38.311Z,79.23
2019-04-13T18:31:11.306Z,79.89
2019-04-13T18:33:43.272Z,79.17
2019-04-13T18:36:15.578Z,81.33
2019-04-13T18:38:48.233Z,82.09
2019-04-13T18:41:19.990Z,82.96
2019-04-13T18:43:51.906Z,81.41
2019-04-13T18:46:24.238Z,82.29
2019-04-13T18:48:56.182Z,83.17
2019-04-13T18:51:29.117Z,83.12
2019-04-13T18:54:01.094Z,81.44
2019-04-13T18:56:33.296Z,80.65
2019-04-13T18:59:06.476Z,82.71
2019-04-13T19:01:38.925Z,81.01
2019-04-13T19:04:12.358Z,80.40
2019-04-13T19:06:44.298Z,80.38
2019-04-13T19:09:16.335Z,79.05
2019-04-13T19:11:48.646Z,81.84
2019-04-13T19:14:20.407Z,83.26
2019-04-13T19:16:52.173Z,82.38
2019-04-13T19:19:24.192Z,83.36
2019-04-13T19:21:56.062Z,83.33
2019-04-13T19:24:27.899Z,84.17
2019-04-13T19:26:59.787Z,83.42
2019-04-13T19:29:31.680Z,83.52
2019-04-13T19:32:04.035Z,84.68
2019-04-13T19:34:36.101Z,80.88
2019-04-13T19:37:08.243Z,83.07
2019-04-13T19:39:40.059Z,83.71
2019-04-13T19:42:12.173Z,82.42
2019-04-13T19:44:44.246Z,83.77
2019-04-13T19:47:15.972Z,83.29
2019-04-13T19:49:47.741Z,83.19
2019-04-13T19:52:40.186Z,83.00
2019-04-13T19:55:12.109Z,80.96
2019-04-13T19:57:43.860Z,80.28
2019-04-13T20:00:22.479Z,80.24
2019-04-13T20:02:54.573Z,80.83
2019-04-13T20:05:26.297Z,81.37
2019-04-13T20:07:58.061Z,81.13
2019-04-13T20:10:29.798Z,83.13
2019-04-13T20:13:02.111Z,81.58
2019-04-13T20:15:35.588Z,81.98
2019-04-13T20:18:07.498Z,83.06
2019-04-13T20:20:39.323Z,82.92
2019-04-13T20:23:12.178Z,83.15
2019-04-13T20:25:44.001Z,83.03
2019-04-13T20:28:17.973Z,82.57
2019-04-13T20:30:49.936Z,85.63
2019-04-13T20:33:22.621Z,83.99
2019-04-13T20:36:02.956Z,86.37
2019-04-13T20:38:28.186Z,86.56
2019-04-13T20:41:08.369Z,87.98
2019-04-13T20:43:51.170Z,86.30
2019-04-13T20:46:14.616Z,86.87
2019-04-13T20:48:46.868Z,87.33
2019-04-13T20:51:19.260Z,87.31
2019-04-13T20:53:51.348Z,85.42
2019-04-13T20:56:23.180Z,83.65
2019-04-13T20:58:55.460Z,83.48
2019-04-13T21:01:27.983Z,85.97
2019-04-13T21:04:00.029Z,85.81
2019-04-13T21:06:32.595Z,84.98
2019-04-13T21:09:07.563Z,85.91
2019-04-13T21:11:39.698Z,87.24
2019-04-13T21:14:23.160Z,86.98
2019-04-13T21:16:45.560Z,87.02
2019-04-13T21:19:17.586Z,86.95
2019-04-13T21:21:49.967Z,85.84
2019-04-13T21:24:22.117Z,84.18
2019-04-13T21:26:54.417Z,87.64
2019-04-13T21:29:26.393Z,86.82
2019-04-13T21:31:58.624Z,86.44
2019-04-13T21:34:31.119Z,88.96
2019-04-13T21:37:03.190Z,87.68
2019-04-13T21:39:35.249Z,86.84
2019-04-13T21:42:08.571Z,86.75
2019-04-13T21:44:44.664Z,86.79
2019-04-13T21:47:14.199Z,85.75
2019-04-13T21:49:46.935Z,85.09
2019-04-13T21:52:37.052Z,86.54
2019-04-13T21:55:07.273Z,83.45
2019-04-13T21:57:39.357Z,84.60
2019-04-13T22:00:18.904Z,86.47
2019-04-13T22:02:52.737Z,84.68
2019-04-13T22:05:25.044Z,85.14
2019-04-13T22:07:57.024Z,84.54
2019-04-13T22:10:28.973Z,87.78
2019-04-13T22:13:01.042Z,87.68
2019-04-13T22:15:33.184Z,87.68
2019-04-13T22:18:06.068Z,86.35
2019-04-13T22:20:38.340Z,85.79
2019-04-13T22:23:12.838Z,84.77
2019-04-13T22:25:45.021Z,84.77
2019-04-13T22:28:19.471Z,85.98
2019-04-13T22:31:01.150Z,85.26
2019-04-13T22:33:32.992Z,86.85
2019-04-13T22:36:31.015Z,85.72
2019-04-13T22:39:05.332Z,86.47
2019-04-13T22:41:39.525Z,87.11
2019-04-13T22:44:11.919Z,87.00
2019-04-13T22:46:43.692Z,87.32
2019-04-13T22:49:24.128Z,87.76
2019-04-13T22:52:15.053Z,87.29
2019-04-13T22:55:05.857Z,87.02
2019-04-13T22:57:41.144Z,86.52
2019-04-13T23:00:21.515Z,87.49
2019-04-13T23:02:54.179Z,85.99
2019-04-13T23:05:26.334Z,86.88
2019-04-13T23:07:58.826Z,84.44
2019-04-13T23:10:31.094Z,86.26
2019-04-13T23:13:03.947Z,84.24
2019-04-13T23:15:38.760Z,85.47
2019-04-13T23:18:10.215Z,85.28
2019-04-13T23:20:43.132Z,85.48
2019-04-13T23:23:15.799Z,85.88
2019-04-13T23:25:48.494Z,85.46
2019-04-13T23:28:20.689Z,84.74
2019-04-13T23:30:53.155Z,84.93
2019-04-13T23:33:26.101Z,84.92
2019-04-13T23:35:58.417Z,84.63
2019-04-13T23:38:30.993Z,84.69
2019-04-13T23:41:03.905Z,84.97
2019-04-13T23:43:36.491Z,85.13
2019-04-13T23:46:08.905Z,84.83
2019-04-13T23:48:41.772Z,85.25
2019-04-13T23:51:14.214Z,85.40
2019-04-13T23:53:46.587Z,84.59
2019-04-13T23:56:27.983Z,85.00
2019-04-13T23:59:11.296Z,86.01
